Time;durP1;ratioP1;P1;durP2;ratioP2;P2;SDS_P1;SDS_P2;PMS_P1;PMS_P2;Temp;Humidity;BMP_temperature;BMP_pressure;BME280_temperature;BME280_humidity;BME280_pressure;Samples;Min_cycle;Max_cycle;Signal;HPM_P1;HPM_P2
2022/08/18 00:02:12;;;;;;;6.45;4.95;;;;;;;;;;4990650;28;20533;-75
2022/08/18 00:04:38;;;;;;;6.15;4.22;;;;;;;;;;4992315;28;20108;-77
2022/08/18 00:07:05;;;;;;;6.50;4.47;;;;;;;;;;4991949;28;20109;-76
2022/08/18 00:09:32;;;;;;;6.93;5.07;;;;;;;;;;4992566;28;20050;-76
2022/08/18 00:12:00;;;;;;;5.35;4.30;;;;;;;;;;4992024;28;20461;-77
2022/08/18 00:14:26;;;;;;;6.55;4.30;;;;;;;;;;4991822;28;20469;-76
2022/08/18 00:16:53;;;;;;;7.38;4.45;;;;;;;;;;4992207;28;20054;-76
2022/08/18 00:19:19;;;;;;;5.60;4.55;;;;;;;;;;4991677;28;20448;-75
2022/08/18 00:21:45;;;;;;;7.45;3.88;;;;;;;;;;4991963;28;20128;-74
2022/08/18 00:24:11;;;;;;;8.95;4.22;;;;;;;;;;4991866;28;20026;-75
2022/08/18 00:26:37;;;;;;;4.93;4.18;;;;;;;;;;4991877;28;20026;-76
2022/08/18 00:29:03;;;;;;;6.78;4.10;;;;;;;;;;4990109;28;20124;-76
2022/08/18 00:31:30;;;;;;;7.63;4.82;;;;;;;;;;4991925;28;20023;-76
2022/08/18 00:33:56;;;;;;;8.30;5.50;;;;;;;;;;4991723;28;20026;-76
2022/08/18 00:36:22;;;;;;;5.47;4.40;;;;;;;;;;4991916;28;20217;-76
2022/08/18 00:38:48;;;;;;;5.43;4.43;;;;;;;;;;4990220;28;20054;-76
2022/08/18 00:41:14;;;;;;;6.15;5.15;;;;;;;;;;4991832;28;20181;-75
2022/08/18 00:43:42;;;;;;;6.45;4.50;;;;;;;;;;4991561;28;20038;-75
2022/08/18 00:46:15;;;;;;;6.60;4.00;;;;;;;;;;4994908;28;20411;-76
2022/08/18 00:48:41;;;;;;;5.32;4.13;;;;;;;;;;4995293;28;20105;-74
2022/08/18 00:51:15;;;;;;;5.03;4.53;;;;;;;;;;4995651;28;20490;-75
2022/08/18 00:53:48;;;;;;;9.95;4.93;;;;;;;;;;4995908;28;20029;-75
2022/08/18 00:56:19;;;;;;;6.30;4.60;;;;;;;;;;4983022;28;20014;-76
2022/08/18 00:58:47;;;;;;;6.15;5.38;;;;;;;;;;4995248;28;20037;-75
2022/08/18 01:01:15;;;;;;;7.10;4.72;;;;;;;;;;4995293;28;20528;-76
2022/08/18 01:03:42;;;;;;;7.03;5.15;;;;;;;;;;4995947;28;20038;-76
2022/08/18 01:06:15;;;;;;;7.18;5.22;;;;;;;;;;4997039;28;20022;-76
2022/08/18 01:08:41;;;;;;;5.75;5.00;;;;;;;;;;4995190;28;20034;-76
2022/08/18 01:11:09;;;;;;;7.80;4.88;;;;;;;;;;4995297;28;20014;-75
2022/08/18 01:13:37;;;;;;;7.80;4.85;;;;;;;;;;4995560;28;20023;-77
2022/08/18 01:21:49;;;;;;;8.68;4.90;;;;;;;;;;4996086;28;20011;-75
2022/08/18 01:21:52;;;;;;;8.48;5.28;;;;;;;;;;4995597;28;20633;-74
2022/08/18 01:27:16;;;;;;;4.88;4.35;;;;;;;;;;4994961;28;20048;-77
2022/08/18 01:29:42;;;;;;;5.30;4.80;;;;;;;;;;4993557;28;20522;-76
2022/08/18 01:32:08;;;;;;;7.95;4.63;;;;;;;;;;4994828;28;20023;-77
2022/08/18 01:34:35;;;;;;;6.32;5.10;;;;;;;;;;4994975;28;20029;-76
2022/08/18 01:37:04;;;;;;;12.07;5.07;;;;;;;;;;4995245;28;20033;-76
2022/08/18 01:39:30;;;;;;;6.07;4.50;;;;;;;;;;4996257;28;20041;-76
2022/08/18 01:41:56;;;;;;;7.32;4.57;;;;;;;;;;5001046;28;20038;-76
2022/08/18 01:44:22;;;;;;;4.85;4.40;;;;;;;;;;5011488;28;20018;-75
2022/08/18 01:46:52;;;;;;;5.72;4.60;;;;;;;;;;5012413;28;20030;-76
2022/08/18 01:49:18;;;;;;;6.10;4.25;;;;;;;;;;5012147;28;20053;-76
2022/08/18 01:51:45;;;;;;;8.48;5.10;;;;;;;;;;5000388;28;20045;-76
2022/08/18 01:54:12;;;;;;;6.15;4.80;;;;;;;;;;5001409;28;20010;-77
2022/08/18 01:56:39;;;;;;;5.10;4.60;;;;;;;;;;5014447;28;20030;-77
2022/08/18 01:59:13;;;;;;;5.93;4.75;;;;;;;;;;5014399;28;20526;-76
2022/08/18 02:01:40;;;;;;;8.85;4.82;;;;;;;;;;5013730;28;20038;-76
2022/08/18 02:04:06;;;;;;;6.10;4.78;;;;;;;;;;5014060;28;20094;-75
2022/08/18 02:06:33;;;;;;;5.53;4.53;;;;;;;;;;5014551;28;20037;-77
2022/08/18 02:08:59;;;;;;;5.93;4.60;;;;;;;;;;5001893;28;20086;-74
2022/08/18 02:11:25;;;;;;;6.45;4.35;;;;;;;;;;4995318;28;20018;-76
2022/08/18 02:13:52;;;;;;;7.95;5.32;;;;;;;;;;4994660;28;20033;-76
2022/08/18 02:16:18;;;;;;;6.68;5.05;;;;;;;;;;4993437;28;20507;-76
2022/08/18 02:18:44;;;;;;;7.30;4.90;;;;;;;;;;4992607;28;20029;-75
2022/08/18 02:21:14;;;;;;;5.88;4.75;;;;;;;;;;4994297;28;20404;-74
2022/08/18 02:23:42;;;;;;;8.32;5.22;;;;;;;;;;4994476;28;20518;-72
2022/08/18 02:26:09;;;;;;;8.25;5.03;;;;;;;;;;4992840;28;20026;-76
2022/08/18 02:28:35;;;;;;;5.47;4.38;;;;;;;;;;4993668;28;20105;-74
2022/08/18 02:31:08;;;;;;;6.18;5.30;;;;;;;;;;4992734;28;20647;-76
2022/08/18 02:33:35;;;;;;;6.10;4.80;;;;;;;;;;4993867;28;20098;-76
2022/08/18 02:36:01;;;;;;;6.47;5.35;;;;;;;;;;4993629;28;20023;-75
2022/08/18 02:38:28;;;;;;;8.38;5.13;;;;;;;;;;4992111;28;20027;-76
2022/08/18 02:40:58;;;;;;;11.25;5.10;;;;;;;;;;4993638;28;20030;-78
2022/08/18 02:43:24;;;;;;;8.75;5.13;;;;;;;;;;4992212;28;20495;-77
2022/08/18 02:45:51;;;;;;;5.28;4.30;;;;;;;;;;4992465;28;20057;-77
2022/08/18 02:48:23;;;;;;;6.00;5.07;;;;;;;;;;4992114;28;20121;-75
2022/08/18 02:50:49;;;;;;;6.13;4.65;;;;;;;;;;4993575;28;20381;-75
2022/08/18 02:53:21;;;;;;;7.10;5.90;;;;;;;;;;4994057;28;20018;-77
2022/08/18 02:55:47;;;;;;;5.68;4.95;;;;;;;;;;4994136;28;20042;-77
2022/08/18 02:58:13;;;;;;;6.90;5.72;;;;;;;;;;4993191;28;20468;-76
2022/08/18 03:00:39;;;;;;;7.68;5.13;;;;;;;;;;4991820;28;20037;-76
2022/08/18 03:03:05;;;;;;;7.20;5.68;;;;;;;;;;5022336;23;20075;-73
2022/08/18 03:05:31;;;;;;;7.20;5.05;;;;;;;;;;5015790;28;20112;-74
2022/08/18 03:07:58;;;;;;;20.20;11.85;;;;;;;;;;5012501;28;20026;-73
2022/08/18 03:10:24;;;;;;;28.77;13.55;;;;;;;;;;5020101;28;20074;-73
2022/08/18 03:12:50;;;;;;;15.50;8.15;;;;;;;;;;5024545;28;20029;-73
2022/08/18 03:15:17;;;;;;;160.43;79.85;;;;;;;;;;5025211;28;20114;-73
2022/08/18 03:17:43;;;;;;;28.08;15.38;;;;;;;;;;5018832;28;20476;-75
2022/08/18 03:20:09;;;;;;;12.23;7.45;;;;;;;;;;5017809;28;20076;-74
2022/08/18 03:22:36;;;;;;;8.90;6.22;;;;;;;;;;5012459;28;20104;-72
2022/08/18 03:25:02;;;;;;;8.10;5.68;;;;;;;;;;5012348;28;20029;-71
2022/08/18 03:27:28;;;;;;;6.18;5.57;;;;;;;;;;5011653;28;20025;-72
2022/08/18 03:29:55;;;;;;;8.05;4.90;;;;;;;;;;5012270;28;20025;-71
2022/08/18 03:32:21;;;;;;;8.95;5.53;;;;;;;;;;5012430;28;20050;-73
2022/08/18 03:34:47;;;;;;;7.50;5.47;;;;;;;;;;5011062;28;20049;-73
2022/08/18 03:37:16;;;;;;;5.93;5.20;;;;;;;;;;5011863;28;20014;-71
2022/08/18 03:39:42;;;;;;;7.18;5.72;;;;;;;;;;5012229;28;20404;-72
2022/08/18 03:42:09;;;;;;;17.05;7.57;;;;;;;;;;5012181;28;20365;-73
2022/08/18 03:44:36;;;;;;;12.63;7.47;;;;;;;;;;5010536;28;20029;-74
2022/08/18 03:47:02;;;;;;;12.52;7.57;;;;;;;;;;5011817;28;20037;-73
2022/08/18 03:49:28;;;;;;;10.98;7.63;;;;;;;;;;5011711;28;20033;-74
2022/08/18 03:51:55;;;;;;;9.40;6.68;;;;;;;;;;5011014;28;20021;-74
2022/08/18 03:54:21;;;;;;;12.98;6.80;;;;;;;;;;5012189;28;20065;-74
2022/08/18 03:56:48;;;;;;;9.55;6.60;;;;;;;;;;5013168;28;20480;-73
2022/08/18 03:59:16;;;;;;;15.52;7.22;;;;;;;;;;5012539;28;20029;-73
2022/08/18 04:01:43;;;;;;;7.18;6.00;;;;;;;;;;5011846;28;20510;-73
2022/08/18 04:04:10;;;;;;;13.65;6.15;;;;;;;;;;5012219;28;20391;-74
2022/08/18 04:06:39;;;;;;;7.78;6.00;;;;;;;;;;5011687;28;20025;-72
2022/08/18 04:09:07;;;;;;;11.07;6.07;;;;;;;;;;5011435;28;20026;-72
2022/08/18 04:11:34;;;;;;;6.93;5.93;;;;;;;;;;5011617;28;20026;-73
2022/08/18 04:14:00;;;;;;;9.85;5.63;;;;;;;;;;5011516;28;20022;-71
2022/08/18 04:16:28;;;;;;;11.57;6.38;;;;;;;;;;5011941;28;20510;-73
2022/08/18 04:18:56;;;;;;;11.40;6.38;;;;;;;;;;5011206;28;20025;-73
2022/08/18 04:21:23;;;;;;;13.15;6.50;;;;;;;;;;5015265;28;20022;-73
2022/08/18 04:23:49;;;;;;;10.82;6.93;;;;;;;;;;5015539;28;20028;-73
2022/08/18 04:26:17;;;;;;;13.55;7.45;;;;;;;;;;5015930;28;20396;-73
2022/08/18 04:28:43;;;;;;;10.45;6.70;;;;;;;;;;5014231;28;20018;-72
2022/08/18 04:31:10;;;;;;;11.43;7.25;;;;;;;;;;5002440;28;20032;-72
2022/08/18 04:33:37;;;;;;;12.10;7.00;;;;;;;;;;5015831;28;20060;-72
2022/08/18 04:36:07;;;;;;;12.52;7.00;;;;;;;;;;5015890;28;20022;-72
2022/08/18 04:38:34;;;;;;;12.05;7.45;;;;;;;;;;5015960;28;20491;-72
2022/08/18 04:41:00;;;;;;;9.38;7.25;;;;;;;;;;5014502;28;20171;-72
2022/08/18 04:43:26;;;;;;;10.15;6.90;;;;;;;;;;5015758;28;20061;-74
2022/08/18 04:45:52;;;;;;;10.23;5.93;;;;;;;;;;5016038;28;20053;-75
2022/08/18 04:48:18;;;;;;;13.02;7.10;;;;;;;;;;5016384;28;20029;-71
2022/08/18 04:50:43;;;;;;;13.15;6.80;;;23.10;57.60;;;;;;5015582;28;20018;-73
2022/08/18 04:55:54;;;;;;;15.18;6.55;;;24.20;54.40;;;;;;5016014;28;20583;-74
2022/08/18 04:58:21;;;;;;;12.60;6.03;;;25.20;51.20;;;;;;5014746;28;20033;-73
2022/08/18 05:00:56;;;;;;;11.05;6.28;;;25.70;50.50;;;;;;5016033;28;20104;-73
2022/08/18 05:03:25;;;;;;;13.68;5.93;;;26.20;48.30;;;;;;5014915;28;20104;-75
2022/08/18 05:05:57;;;;;;;11.18;6.07;;;26.90;47.00;;;;;;5014700;28;20550;-74
2022/08/18 05:08:23;;;;;;;11.00;5.70;;;27.30;46.20;;;;;;5014611;28;20104;-74
2022/08/18 05:10:53;;;;;;;8.68;5.97;;;28.00;44.60;;;;;;5014799;28;20017;-75
2022/08/18 05:13:19;;;;;;;7.13;5.65;;;28.80;43.10;;;;;;5014785;28;20038;-74
2022/08/18 05:15:50;;;;;;;7.80;5.20;;;28.90;42.70;;;;;;5014577;28;20519;-73
2022/08/18 05:18:18;;;;;;;10.30;5.63;;;28.90;42.80;;;;;;5014526;28;20490;-73
2022/08/18 05:20:43;;;;;;;8.50;5.45;;;29.00;42.60;;;;;;5014454;28;20084;-75
2022/08/18 05:23:09;;;;;;;8.75;5.43;;;29.20;41.80;;;;;;5014618;28;20022;-73
2022/08/18 05:25:35;;;;;;;12.68;5.32;;;29.00;41.90;;;;;;5012017;28;20121;-74
2022/08/18 05:28:00;;;;;;;8.65;5.75;;;28.30;43.50;;;;;;5012971;28;20025;-72
2022/08/18 05:30:26;;;;;;;6.80;5.60;;;27.90;44.40;;;;;;5015776;28;20084;-74
2022/08/18 05:32:53;;;;;;;9.88;6.05;;;27.30;45.50;;;;;;5014425;28;20029;-76
2022/08/18 05:35:23;;;;;;;8.18;5.85;;;26.90;46.30;;;;;;5013069;28;20021;-73
2022/08/18 05:38:15;;;;;;;7.32;5.03;;;26.60;46.80;;;;;;5012935;28;20014;-74
2022/08/18 05:40:44;;;;;;;9.27;5.20;;;26.20;48.00;;;;;;5014163;28;20049;-73
2022/08/18 05:43:11;;;;;;;6.93;5.05;;;26.10;48.50;;;;;;5013943;28;20108;-75
2022/08/18 05:45:39;;;;;;;7.72;5.47;;;26.00;48.80;;;;;;5013833;28;20097;-73
2022/08/18 05:48:05;;;;;;;12.60;5.53;;;26.20;48.60;;;;;;5012683;28;20067;-73
2022/08/18 05:50:35;;;;;;;10.60;5.20;;;26.60;47.40;;;;;;5016678;28;20030;-73
2022/08/18 05:53:13;;;;;;;7.90;5.28;;;27.50;45.50;;;;;;5023377;28;20172;-73
2022/08/18 05:58:49;;;;;;;9.48;5.07;;;31.20;38.50;;;;;;5016434;28;20565;-73
2022/08/18 06:01:21;;;;;;;8.32;4.35;;;32.80;35.50;;;;;;5026308;28;20486;-74
2022/08/18 06:03:59;;;;;;;9.60;4.32;;;34.00;33.70;;;;;;5019189;28;20438;-73
2022/08/18 06:06:29;;;;;;;4.68;4.25;;;35.00;32.10;;;;;;5013747;28;20480;-73
2022/08/18 06:09:22;;;;;;;9.70;4.68;;;35.70;30.40;;;;;;5013412;28;20422;-72
2022/08/18 06:11:49;;;;;;;7.40;4.05;;;36.50;29.50;;;;;;5012866;28;20018;-74
2022/08/18 06:14:15;;;;;;;10.05;4.35;;;36.50;28.60;;;;;;5011130;28;20442;-71
2022/08/18 06:17:01;;;;;;;6.55;4.00;;;36.70;29.00;;;;;;5013575;28;20110;-74
2022/08/18 06:19:39;;;;;;;5.85;4.00;;;37.10;28.20;;;;;;5004747;28;20029;-76
2022/08/18 06:22:28;;;;;;;9.20;4.43;;;37.70;27.40;;;;;;5008569;28;20026;-75
2022/08/18 06:25:17;;;;;;;10.00;4.47;;;37.90;27.10;;;;;;5004111;28;20034;-75
2022/08/18 06:27:59;;;;;;;5.75;3.83;;;37.90;27.00;;;;;;5012115;28;20040;-76
2022/08/18 06:30:46;;;;;;;5.65;4.07;;;38.70;25.90;;;;;;5006153;28;20025;-74
2022/08/18 06:33:45;;;;;;;5.47;4.05;;;39.70;25.00;;;;;;5009612;28;20017;-75
2022/08/18 06:36:36;;;;;;;7.57;4.00;;;39.80;24.70;;;;;;5013259;28;20442;-75
2022/08/18 06:39:25;;;;;;;10.63;3.85;;;39.70;24.30;;;;;;5013215;28;20030;-75
2022/08/18 06:41:52;;;;;;;5.68;3.67;;;39.60;24.10;;;;;;5014213;28;20018;-77
2022/08/18 06:44:39;;;;;;;8.75;3.97;;;39.80;23.70;;;;;;5012579;28;20073;-76
2022/08/18 06:47:33;;;;;;;4.80;3.92;;;37.10;26.70;;;;;;5012794;28;20032;-77
2022/08/18 06:50:04;;;;;;;7.70;3.90;;;35.30;29.30;;;;;;5007255;28;20073;-77
2022/08/18 06:52:32;;;;;;;7.65;4.07;;;35.10;29.40;;;;;;5010148;28;20018;-76
2022/08/18 06:55:02;;;;;;;6.90;4.20;;;35.50;29.30;;;;;;5012595;28;20113;-78
2022/08/18 06:57:33;;;;;;;4.82;4.25;;;35.20;29.30;;;;;;5014482;28;20077;-77
2022/08/18 07:00:19;;;;;;;7.82;4.40;;;;;;;;;;5013321;28;20112;-76
2022/08/18 07:03:05;;;;;;;9.45;4.95;;;33.50;31.50;;;;;;5015868;28;20139;-77
2022/08/18 07:05:32;;;;;;;9.73;4.82;;;;;;;;;;5014726;28;20030;-77
2022/08/18 07:08:21;;;;;;;7.13;4.80;;;30.90;35.90;;;;;;5016530;28;20022;-76
2022/08/18 07:10:49;;;;;;;9.25;4.32;;;;;;;;;;5015681;28;20024;-76
2022/08/18 07:13:27;;;;;;;10.98;4.68;;;31.00;36.50;;;;;;5026046;28;20021;-75
2022/08/18 07:16:14;;;;;;;12.52;4.80;;;31.10;36.30;;;;;;5016533;28;20040;-76
2022/08/18 07:18:40;;;;;;;9.90;4.72;;;30.50;37.20;;;;;;5007213;28;20129;-76
2022/08/18 07:21:06;;;;;;;10.95;5.28;;;;;;;;;;5013176;28;20087;-77
2022/08/18 07:23:37;;;;;;;10.95;4.97;;;29.30;39.70;;;;;;5014295;28;20153;-76
2022/08/18 07:26:16;;;;;;;11.57;5.18;;;29.20;40.00;;;;;;5003200;28;20030;-77
2022/08/18 07:28:48;;;;;;;7.78;4.85;;;29.60;39.70;;;;;;5013574;28;20040;-76
2022/08/18 07:31:41;;;;;;;5.97;4.57;;;29.60;39.60;;;;;;5005750;28;20072;-77
2022/08/18 07:34:12;;;;;;;7.15;4.18;;;30.10;38.90;;;;;;5014795;28;20018;-77
2022/08/18 07:36:48;;;;;;;;;;;30.70;38.10;;;;;;5018741;28;20018;-78
2022/08/18 07:39:25;;;;;;;9.30;5.20;;;31.00;37.10;;;;;;5018454;28;19910;-77
2022/08/18 07:42:31;;;;;;;6.85;4.40;;;31.40;36.50;;;;;;5017365;28;20484;-76
2022/08/18 07:45:22;;;;;;;12.55;4.50;;;31.40;36.20;;;;;;4998307;28;20038;-75
2022/08/18 07:48:09;;;;;;;16.67;5.30;;;31.60;35.90;;;;;;5018558;28;20034;-74
2022/08/18 07:51:03;;;;;;;15.80;7.75;;;31.70;37.00;;;;;;5018994;28;20525;-76
2022/08/18 07:53:40;;;;;;;12.48;6.75;;;31.80;36.50;;;;;;4993056;28;20041;-77
2022/08/18 07:56:18;;;;;;;12.23;5.72;;;31.90;36.30;;;;;;5020127;28;20492;-78
2022/08/18 07:58:50;;;;;;;9.77;4.95;;;32.00;35.70;;;;;;5019301;28;20022;-79
2022/08/18 08:01:21;;;;;;;16.40;5.00;;;31.90;36.00;;;;;;5014038;28;20029;-78
2022/08/18 08:03:58;;;;;;;8.55;4.70;;;31.60;36.40;;;;;;5019842;28;20026;-77
2022/08/18 08:06:36;;;;;;;9.63;4.75;;;31.80;36.70;;;;;;5006811;28;20109;-77
2022/08/18 08:09:21;;;;;;;8.45;5.40;;;31.70;36.10;;;;;;5011346;28;20053;-78
2022/08/18 08:12:35;;;;;;;11.73;5.38;;;31.70;36.50;;;;;;5011380;28;20022;-78
2022/08/18 08:15:21;;;;;;;15.40;5.15;;;31.40;36.30;;;;;;5009105;28;20101;-78
2022/08/18 08:18:05;;;;;;;7.60;4.95;;;30.90;37.10;;;;;;4977890;28;20511;-78
2022/08/18 08:20:44;;;;;;;7.88;5.13;;;30.50;38.30;;;;;;5019795;28;20029;-78
2022/08/18 08:23:19;;;;;;;13.77;5.32;;;30.40;38.80;;;;;;5017725;28;20014;-75
2022/08/18 08:26:25;;;;;;;8.10;5.70;;;30.20;39.40;;;;;;5004553;28;20021;-78
2022/08/18 08:29:06;;;;;;;10.80;8.10;;;30.00;39.60;;;;;;5015025;28;20037;-79
2022/08/18 08:31:47;;;;;;;;;;;30.40;39.30;;;;;;5011799;28;20022;-79
2022/08/18 08:34:30;;;;;;;9.70;5.78;;;30.90;38.70;;;;;;5018267;28;19912;-74
2022/08/18 08:37:04;;;;;;;6.15;5.10;;;31.20;37.80;;;;;;5018363;28;20022;-74
2022/08/18 08:39:59;;;;;;;7.70;5.28;;;32.60;36.10;;;;;;5011902;28;20033;-75
2022/08/18 08:42:55;;;;;;;13.10;5.75;;;35.10;32.10;;;;;;5013011;28;20030;-77
2022/08/18 08:45:28;;;;;;;6.10;5.20;;;37.30;29.10;;;;;;5015614;28;20026;-75
2022/08/18 08:48:28;;;;;;;6.68;4.45;;;38.40;26.80;;;;;;5010024;28;20022;-73
2022/08/18 08:51:01;;;;;;;9.23;4.30;;;39.10;26.00;;;;;;5007298;28;20034;-74
2022/08/18 08:53:36;;;;;;;9.05;5.15;;;39.40;25.70;;;;;;5011754;28;20460;-77
2022/08/18 08:56:06;;;;;;;9.20;4.80;;;40.40;24.50;;;;;;5011557;28;20018;-76
2022/08/18 08:58:36;;;;;;;10.75;6.68;;;41.10;23.60;;;;;;5014330;28;20018;-77
2022/08/18 09:01:04;;;;;;;5.88;5.28;;;40.30;24.20;;;;;;5015994;28;20026;-76
2022/08/18 09:07:59;;;;;;;;;;;;;;;;;;;;;
2022/08/18 09:16:47;;;;;;;13.60;9.13;;;36.40;29.10;;;;;;4799612;26;20041;-76
2022/08/18 09:20:19;;;;;;;;;;;;;;;;;;;;;
2022/08/18 09:23:29;;;;;;;6.50;5.05;;;37.40;27.70;;;;;;5022384;28;20037;-76
2022/08/18 09:26:19;;;;;;;8.40;5.07;;;37.70;27.20;;;;;;4953775;28;20027;-77
2022/08/18 09:28:58;;;;;;;15.27;6.57;;;37.30;27.60;;;;;;5021441;23;20045;-77
2022/08/18 09:31:26;;;;;;;7.03;5.18;;;36.30;28.90;;;;;;4967113;28;20030;-78
2022/08/18 09:34:11;;;;;;;9.25;4.93;;;35.80;29.50;;;;;;4972087;28;20026;-77
2022/08/18 09:37:18;;;;;;;7.15;5.07;;;35.10;30.20;;;;;;4988173;28;20077;-78
2022/08/18 09:43:30;;;;;;;8.82;4.57;;;34.70;31.70;;;;;;5002660;28;20081;-78
2022/08/18 09:46:03;;;;;;;9.38;4.43;;;34.70;31.20;;;;;;4976205;28;20105;-78
2022/08/18 09:48:37;;;;;;;7.70;4.30;;;34.60;31.60;;;;;;4986616;28;20400;-77
2022/08/18 09:51:14;;;;;;;10.15;5.05;;;34.80;31.40;;;;;;4976684;28;20094;-77
2022/08/18 09:53:51;;;;;;;6.88;3.97;;;;;;;;;;4995085;28;20105;-76
2022/08/18 09:56:52;;;;;;;13.48;5.45;;;34.40;31.10;;;;;;4983121;28;20018;-76
2022/08/18 09:59:33;;;;;;;10.32;5.22;;;34.10;31.80;;;;;;4995082;28;20022;-75
2022/08/18 10:02:10;;;;;;;7.57;4.18;;;33.90;32.50;;;;;;4993237;28;20388;-76
2022/08/18 10:04:55;;;;;;;12.77;4.75;;;33.80;32.90;;;;;;4981001;28;20053;-75
2022/08/18 10:07:34;;;;;;;5.80;4.40;;;33.70;33.10;;;;;;4973230;28;20037;-75
2022/08/18 10:10:38;;;;;;;13.15;5.47;;;33.80;33.10;;;;;;4998795;28;20022;-76
2022/08/18 10:13:20;;;;;;;10.77;5.30;;;33.80;33.20;;;;;;4998503;28;20040;-74
2022/08/18 10:15:48;;;;;;;8.60;5.05;;;33.70;33.60;;;;;;5001726;28;20045;-73
2022/08/18 10:18:37;;;;;;;6.57;4.60;;;33.80;33.60;;;;;;4979495;28;20022;-74
2022/08/18 10:21:27;;;;;;;9.65;4.47;;;33.70;33.80;;;;;;4993605;28;20105;-77
2022/08/18 10:24:03;;;;;;;39.50;29.85;;;33.60;33.10;;;;;;4996218;28;20023;-78
2022/08/18 10:26:29;;;;;;;40.05;26.10;;;33.50;33.20;;;;;;4981125;28;20049;-75
2022/08/18 10:28:56;;;;;;;413.15;325.10;;;33.20;33.50;;;;;;5001695;28;20103;-74
2022/08/18 10:31:22;;;;;;;11.38;7.63;;;32.90;35.20;;;;;;4995889;28;20030;-75
2022/08/18 10:34:08;;;;;;;9.25;5.53;;;32.80;34.50;;;;;;4990712;28;20026;-77
2022/08/18 10:36:46;;;;;;;7.35;4.97;;;32.80;34.60;;;;;;4972475;28;20126;-77
2022/08/18 10:39:16;;;;;;;9.73;5.47;;;32.90;34.70;;;;;;4991775;28;20101;-76
2022/08/18 10:42:12;;;;;;;7.72;4.65;;;32.90;34.40;;;;;;4975595;28;20032;-78
2022/08/18 10:44:45;;;;;;;8.35;5.30;;;32.90;34.50;;;;;;4974271;28;20366;-77
2022/08/18 10:47:28;;;;;;;6.65;4.70;;;32.90;34.40;;;;;;4988014;28;20037;-77
2022/08/18 10:49:54;;;;;;;10.07;5.00;;;32.90;35.00;;;;;;4975616;28;20068;-77
2022/08/18 10:53:00;;;;;;;6.60;3.72;;;33.10;34.70;;;;;;4993022;28;20026;-77
2022/08/18 10:55:50;;;;;;;9.45;5.50;;;33.10;34.80;;;;;;4951508;28;20038;-76
2022/08/18 10:58:29;;;;;;;9.52;5.32;;;33.20;34.60;;;;;;4978812;28;20019;-77
2022/08/18 11:00:57;;;;;;;7.80;4.35;;;33.00;34.80;;;;;;4987605;28;20017;-76
2022/08/18 11:03:49;;;;;;;9.85;5.22;;;33.00;34.80;;;;;;4992156;28;20023;-75
2022/08/18 11:06:22;;;;;;;12.95;5.00;;;32.70;35.60;;;;;;4992052;28;20018;-77
2022/08/18 11:08:50;;;;;;;12.02;4.40;;;32.90;35.50;;;;;;4984185;28;20118;-77
2022/08/18 11:11:25;;;;;;;8.75;4.75;;;32.90;35.00;;;;;;4975253;28;20032;-76
2022/08/18 11:14:19;;;;;;;6.97;4.20;;;33.00;34.90;;;;;;4992076;28;20022;-76
2022/08/18 11:17:05;;;;;;;14.52;4.95;;;32.90;35.20;;;;;;4984564;28;20069;-79
2022/08/18 11:19:37;;;;;;;12.95;4.50;;;32.90;35.40;;;;;;4988800;28;20582;-77
2022/08/18 11:22:06;;;;;;;13.55;4.45;;;32.90;35.20;;;;;;4990432;28;20034;-77
2022/08/18 11:24:34;;;;;;;9.65;4.78;;;32.90;35.30;;;;;;4990369;28;20023;-77
2022/08/18 11:27:03;;;;;;;14.18;4.22;;;33.10;35.30;;;;;;4987497;28;20027;-77
2022/08/18 11:29:38;;;;;;;10.35;4.60;;;32.90;35.80;;;;;;4992103;28;20050;-77
2022/08/18 11:32:15;;;;;;;9.10;4.75;;;32.70;36.00;;;;;;4999641;28;20018;-77
2022/08/18 11:34:53;;;;;;;11.82;4.90;;;32.70;36.20;;;;;;5001325;28;20077;-77
2022/08/18 11:37:40;;;;;;;9.82;4.78;;;32.50;37.20;;;;;;5002159;28;20022;-78
2022/08/18 11:40:33;;;;;;;16.92;5.82;;;32.40;37.20;;;;;;4982856;28;20022;-77
2022/08/18 11:43:08;;;;;;;8.60;5.25;;;32.20;37.40;;;;;;4989878;28;20484;-72
2022/08/18 11:45:45;;;;;;;9.23;5.70;;;31.80;37.90;;;;;;4981566;28;20031;-74
2022/08/18 11:48:36;;;;;;;35.70;28.20;;;31.50;39.00;;;;;;4971288;28;20062;-73
2022/08/18 11:51:10;;;;;;;131.95;111.80;;;31.40;39.00;;;;;;4991192;28;20038;-75
2022/08/18 11:53:42;;;;;;;71.13;53.92;;;;;;;;;;4989896;28;20535;-73
2022/08/18 11:56:20;;;;;;;59.75;46.05;;;;;;;;;;4989199;28;20027;-74
2022/08/18 11:59:00;;;;;;;21.98;13.90;;;30.70;39.60;;;;;;4986045;28;20027;-73
2022/08/18 12:01:32;;;;;;;14.30;6.80;;;30.50;40.40;;;;;;4992299;28;20041;-74
2022/08/18 12:04:38;;;;;;;10.70;6.15;;;30.30;40.80;;;;;;4989275;28;20053;-73
2022/08/18 12:07:09;;;;;;;164.75;136.07;;;30.30;41.00;;;;;;4990171;28;20042;-71
2022/08/18 12:09:48;;;;;;;126.20;85.15;;;30.10;41.80;;;;;;4984331;28;20026;-72
2022/08/18 12:12:21;;;;;;;11.98;8.68;;;30.00;41.60;;;;;;4984443;28;20027;-72
2022/08/18 12:15:22;;;;;;;129.98;81.95;;;30.00;41.60;;;;;;4991772;28;20026;-72
2022/08/18 12:17:48;;;;;;;79.00;41.10;;;30.10;41.80;;;;;;4980975;28;20121;-74
2022/08/18 12:20:15;;;;;;;38.47;21.05;;;30.30;41.30;;;;;;4970970;28;20113;-75
2022/08/18 12:22:43;;;;;;;11.07;6.07;;;30.50;40.90;;;;;;4990261;28;20465;-75
2022/08/18 12:25:12;;;;;;;22.95;10.98;;;30.60;40.90;;;;;;4991974;28;20026;-76
2022/08/18 12:27:39;;;;;;;15.25;6.72;;;30.80;40.70;;;;;;4981384;28;20038;-76
2022/08/18 12:30:06;;;;;;;24.98;12.60;;;30.90;40.90;;;;;;4989151;28;20088;-75
2022/08/18 12:32:34;;;;;;;30.50;13.35;;;31.00;40.50;;;;;;4986605;28;20641;-74
2022/08/18 12:35:01;;;;;;;21.38;7.63;;;30.90;41.00;;;;;;4991447;28;20022;-75
2022/08/18 12:37:28;;;;;;;20.75;8.40;;;30.90;40.90;;;;;;4988513;28;20014;-74
2022/08/18 12:39:56;;;;;;;23.13;7.45;;;31.20;40.80;;;;;;4987900;28;20037;-75
2022/08/18 12:42:22;;;;;;;12.52;6.20;;;31.30;40.50;;;;;;4992872;28;20392;-75
2022/08/18 12:44:48;;;;;;;13.88;5.32;;;31.50;40.20;;;;;;4978798;28;20038;-75
2022/08/18 12:47:23;;;;;;;16.75;6.60;;;31.30;40.30;;;;;;4976015;28;20117;-76
2022/08/18 12:49:49;;;;;;;14.07;5.72;;;31.40;40.40;;;;;;4995592;28;20034;-76
2022/08/18 12:52:16;;;;;;;17.02;7.78;;;31.40;40.50;;;;;;4990749;28;20045;-76
2022/08/18 12:54:42;;;;;;;13.10;6.30;;;31.70;40.00;;;;;;4995666;28;20035;-75
2022/08/18 12:57:18;;;;;;;17.80;5.75;;;31.80;39.90;;;;;;4985733;28;20110;-75
2022/08/18 12:59:44;;;;;;;13.55;5.55;;;31.80;39.50;;;;;;4996227;28;20034;-75
2022/08/18 13:02:10;;;;;;;14.82;5.95;;;31.90;39.50;;;;;;4993321;28;20019;-74
2022/08/18 13:04:36;;;;;;;14.43;6.15;;;32.00;39.00;;;;;;4990308;28;20037;-75
2022/08/18 13:07:03;;;;;;;15.75;5.30;;;32.00;39.10;;;;;;4972026;28;20400;-75
2022/08/18 13:09:31;;;;;;;11.45;5.32;;;31.80;39.40;;;;;;4990100;28;20026;-76
2022/08/18 13:11:57;;;;;;;14.02;5.22;;;31.70;39.60;;;;;;4978590;28;20034;-75
2022/08/18 13:14:22;;;;;;;16.23;5.82;;;31.60;39.70;;;;;;4991212;28;20023;-74
2022/08/18 13:16:49;;;;;;;11.77;5.55;;;31.60;39.50;;;;;;4977973;28;20018;-74
2022/08/18 13:19:14;;;;;;;11.43;5.68;;;31.50;40.00;;;;;;4994199;28;20693;-75
2022/08/18 13:21:43;;;;;;;13.50;6.28;;;31.40;40.40;;;;;;4992625;28;20093;-77
2022/08/18 13:24:09;;;;;;;12.30;6.03;;;31.40;40.50;;;;;;4994613;28;20539;-77
2022/08/18 13:26:38;;;;;;;14.55;5.45;;;31.50;40.20;;;;;;4995955;28;20030;-77
2022/08/18 13:29:05;;;;;;;9.57;6.22;;;31.20;40.60;;;;;;4991305;28;20381;-75
2022/08/18 13:31:31;;;;;;;9.20;5.03;;;31.30;40.70;;;;;;4991555;28;20503;-76
2022/08/18 13:33:58;;;;;;;12.90;5.63;;;31.40;40.60;;;;;;4994617;28;20548;-76
2022/08/18 13:36:43;;;;;;;17.45;5.43;;;31.30;40.50;;;;;;4985151;28;20061;-77
2022/08/18 13:39:12;;;;;;;12.93;5.25;;;31.40;40.90;;;;;;4978115;28;20026;-78
2022/08/18 13:41:40;;;;;;;12.20;5.45;;;31.40;40.80;;;;;;4995752;28;20030;-77
2022/08/18 13:44:06;;;;;;;19.55;6.13;;;31.50;40.60;;;;;;4995546;28;20026;-76
2022/08/18 13:46:32;;;;;;;14.05;4.97;;;31.50;40.70;;;;;;4988617;28;20026;-75
2022/08/18 13:49:01;;;;;;;15.38;5.75;;;31.70;40.40;;;;;;4984372;28;20031;-76
2022/08/18 13:51:27;;;;;;;9.88;5.15;;;31.90;39.70;;;;;;4979681;28;20025;-75
2022/08/18 13:53:53;;;;;;;11.77;5.50;;;32.00;40.00;;;;;;4992014;28;20023;-76
2022/08/18 13:56:19;;;;;;;9.98;5.63;;;32.20;39.60;;;;;;4975571;28;20023;-75
2022/08/18 13:58:48;;;;;;;12.75;5.88;;;32.00;40.00;;;;;;4993522;28;20388;-74
2022/08/18 14:01:13;;;;;;;13.60;5.30;;;31.80;40.60;;;;;;4989280;28;20018;-75
2022/08/18 14:03:40;;;;;;;13.50;5.78;;;31.70;40.90;;;;;;4991564;28;20026;-75
2022/08/18 14:06:06;;;;;;;11.00;5.78;;;31.50;41.40;;;;;;4990699;28;20019;-75
2022/08/18 14:08:32;;;;;;;14.48;6.30;;;31.40;41.50;;;;;;4993372;28;20077;-74
2022/08/18 14:11:00;;;;;;;11.20;5.82;;;31.40;41.60;;;;;;4994491;28;20045;-75
2022/08/18 14:13:27;;;;;;;10.35;6.30;;;31.50;41.70;;;;;;4993699;28;20481;-76
2022/08/18 14:15:55;;;;;;;13.73;5.78;;;31.60;41.00;;;;;;4988500;28;20077;-75
2022/08/18 14:18:25;;;;;;;12.60;6.10;;;31.70;41.00;;;;;;4987444;28;20320;-75
2022/08/18 14:29:04;;;;;;;17.08;6.40;;;31.00;42.40;;;;;;4983279;28;20129;-75